Ana Sayfa
METAR-TAF:

METAR-TAF

Havaalanları :

Apalachicola, Florida, Amerika Birleşik Devletleri

Enlem: 29-43-37N, Boylam: 085-01-29W, yükseklik: 6 m

Güncel hava durumu gözlemi

Rapor saat 18:53 UTC de 20 dakika önce yapıldı.
Rüzgar batı/güneybatıdan 13 kt
Sıcaklık 33°C
Nem 59%
Basınç 1014 hPa
Görüş mesafesi: 16.1 km
10000 ft yükseklikte az bulutlu
12000 ft yükseklikte parçalı bulutlu

METAR: KAAF 251853Z AUTO 24013KT 10SM FEW100 SCT120 33/24 A2994 RMK AO2 LTG DSNT NE SLP139 T03330244

Saat: 15:13 (19:13 UTC)


TAF: eksik

4.000'den fazla havaalanı için hava durumu gözlemleri ve tahminleri (METAR ve TAF raporları).

Kullanılabilir istasyonlar harita üzerinde sarı ve kırmızı noktalarla gösterilir.

İstasyonun adını görmek için fareyi noktanın üzerinde gezdirin.

Sonrasında hava gözlem ve tahminlerini görmek için tıklayın.

Haritayı değiştirmek için: yaklaştırmak için siyah artı işaretli yeşil düğmeye ve uzaklaştırmak için de eksi işaretli düğmeye hızla tıklayın; bitişik haritalar için yeşil okları kullanın.


METAR-TAF: